Time;durP1;ratioP1;P1;durP2;ratioP2;P2;SDS_P1;SDS_P2;PMS_P1;PMS_P2;Temp;Humidity;BMP_temperature;BMP_pressure;BME280_temperature;BME280_humidity;BME280_pressure;Samples;Min_cycle;Max_cycle;Signal;HPM_P1;HPM_P2
2022/12/13 00:02:20;;;;;;;24.40;12.52;;;;;;;;;;5048257;28;20080;-77
2022/12/13 00:05:06;;;;;;;26.45;13.60;;;;;;;;;;5039196;28;20024;-78
2022/12/13 00:07:52;;;;;;;26.25;13.77;;;;;;;;;;5040085;28;20024;-78
2022/12/13 00:10:37;;;;;;;26.35;12.70;;;;;;;;;;5050787;28;20085;-79
2022/12/13 00:13:22;;;;;;;28.02;12.55;;;;;;;;;;5048585;28;20036;-83
2022/12/13 00:16:11;;;;;;;25.75;12.25;;;;;;;;;;5053128;28;20112;-78
2022/12/13 00:18:58;;;;;;;26.33;14.52;;;;;;;;;;5048951;28;20078;-77
2022/12/13 00:21:43;;;;;;;24.45;12.55;;;;;;;;;;5037507;28;20039;-76
2022/12/13 00:24:28;;;;;;;26.98;13.45;;;;;;;;;;5047326;28;20025;-76
2022/12/13 00:27:14;;;;;;;25.40;11.40;;;;;;;;;;5033775;28;20478;-78
2022/12/13 00:29:59;;;;;;;25.20;12.68;;;;;;;;;;5034448;28;20020;-80
2022/12/13 00:32:44;;;;;;;28.63;13.68;;;;;;;;;;5048396;28;20052;-80
2022/12/13 00:35:29;;;;;;;21.77;11.60;;;;;;;;;;5038736;28;20020;-75
2022/12/13 00:38:15;;;;;;;25.27;12.65;;;;;;;;;;5052948;28;20103;-73
2022/12/13 00:41:08;;;;;;;25.95;12.05;;;;;;;;;;5048840;28;20056;-79
2022/12/13 00:43:54;;;;;;;22.83;12.77;;;;;;;;;;5034194;28;20742;-76
2022/12/13 00:46:39;;;;;;;28.60;13.30;;;;;;;;;;5062049;28;20376;-76
2022/12/13 00:49:25;;;;;;;23.48;12.40;;;;;;;;;;5039235;28;20044;-79
2022/12/13 00:52:10;;;;;;;24.75;12.93;;;;;;;;;;5032045;28;20036;-76
2022/12/13 00:54:55;;;;;;;25.27;12.90;;;;;;;;;;5035983;28;21598;-75
2022/12/13 00:57:40;;;;;;;23.98;12.52;;;;;;;;;;5036119;28;20051;-75
2022/12/13 01:00:26;;;;;;;26.70;12.55;;;;;;;;;;5049748;28;20377;-76
2022/12/13 01:03:24;;;;;;;23.52;13.27;;;;;;;;;;5054927;28;20044;-75
2022/12/13 01:06:09;;;;;;;37.92;11.70;;;;;;;;;;5046310;28;20135;-75
2022/12/13 01:08:54;;;;;;;31.55;13.63;;;;;;;;;;5038222;28;20086;-80
2022/12/13 01:11:39;;;;;;;23.02;11.57;;;;;;;;;;5041410;28;20032;-75
2022/12/13 01:14:25;;;;;;;21.58;11.93;;;;;;;;;;5036692;28;20048;-76
2022/12/13 01:17:10;;;;;;;28.15;14.20;;;;;;;;;;5038873;28;20031;-76
2022/12/13 01:19:56;;;;;;;26.25;12.63;;;;;;;;;;5044858;28;20020;-78
2022/12/13 01:22:41;;;;;;;26.13;13.10;;;;;;;;;;5034043;28;20436;-78
2022/12/13 01:25:26;;;;;;;25.88;13.40;;;;;;;;;;5032306;28;20016;-77
2022/12/13 01:28:12;;;;;;;25.13;11.93;;;;;;;;;;5033870;28;20094;-78
2022/12/13 01:30:58;;;;;;;24.55;12.98;;;;;;;;;;5034609;28;20027;-78
2022/12/13 01:33:44;;;;;;;23.23;12.82;;;;;;;;;;5031091;28;20585;-78
2022/12/13 01:36:29;;;;;;;31.80;12.77;;;;;;;;;;5033902;28;20024;-77
2022/12/13 01:39:16;;;;;;;27.58;12.57;;;;;;;;;;5046700;28;20089;-77
2022/12/13 01:42:02;;;;;;;25.42;13.23;;;;;;;;;;5032247;28;20498;-76
2022/12/13 01:45:05;;;;;;;27.15;11.85;;;;;;;;;;5033687;28;20032;-81
2022/12/13 01:47:55;;;;;;;22.02;11.07;;;;;;;;;;5033533;28;20023;-81
2022/12/13 01:50:43;;;;;;;39.58;13.00;;;;;;;;;;5047951;28;20136;-80
2022/12/13 01:53:30;;;;;;;22.98;11.30;;;;;;;;;;5041975;28;20107;-81
2022/12/13 01:56:18;;;;;;;19.88;10.98;;;;;;;;;;5034038;28;20448;-82
2022/12/13 01:59:05;;;;;;;25.02;12.02;;;;;;;;;;5051524;28;20116;-77
2022/12/13 02:01:50;;;;;;;27.35;11.70;;;;;;;;;;5060660;28;20048;-76
2022/12/13 02:04:58;;;;;;;23.55;12.77;;;;;;;;;;5035489;28;20530;-77
2022/12/13 02:07:43;;;;;;;25.15;12.73;;;;;;;;;;5033151;28;20043;-82
2022/12/13 02:10:30;;;;;;;29.83;14.05;;;;;;;;;;5035526;28;20087;-81
2022/12/13 02:13:15;;;;;;;29.77;15.30;;;;;;;;;;5034648;28;20105;-79
2022/12/13 02:16:09;;;;;;;24.77;12.55;;;;;;;;;;5032550;28;20028;-80
2022/12/13 02:18:54;;;;;;;25.48;12.23;;;;;;;;;;5054137;28;20107;-80
2022/12/13 02:22:02;;;;;;;26.83;13.27;;;;;;;;;;5035509;28;20463;-75
2022/12/13 02:24:53;;;;;;;21.65;12.13;;;;;;;;;;5061810;28;20184;-78
2022/12/13 02:27:44;;;;;;;22.63;11.60;;;;;;;;;;5039192;28;20029;-79
2022/12/13 02:30:36;;;;;;;25.88;12.93;;;;;;;;;;5034383;28;20032;-78
2022/12/13 02:33:27;;;;;;;24.05;12.05;;;;;;;;;;5050170;28;20031;-79
2022/12/13 02:36:13;;;;;;;23.63;11.05;;;;;;;;;;5039938;28;20032;-76
2022/12/13 02:39:01;;;;;;;23.00;11.95;;;;;;;;;;5053192;28;20090;-75
2022/12/13 02:41:48;;;;;;;30.05;12.82;;;;;;;;;;5056202;28;20083;-80
2022/12/13 02:44:38;;;;;;;28.90;13.30;;;;;;;;;;5050400;28;20569;-79
2022/12/13 02:47:23;;;;;;;;;;;;;;;;;;5041419;28;20075;-78
2022/12/13 02:50:09;;;;;;;22.75;11.93;;;;;;;;;;5041030;28;19954;-79
2022/12/13 02:52:54;;;;;;;24.90;12.55;;;;;;;;;;5057024;28;20017;-78
2022/12/13 02:55:40;;;;;;;24.42;12.43;;;;;;;;;;5044418;28;20303;-78
2022/12/13 02:58:28;;;;;;;25.83;11.80;;;;;;;;;;5041752;28;20107;-76
2022/12/13 03:01:22;;;;;;;26.85;12.80;;;;;;;;;;5039773;28;20396;-77
2022/12/13 03:04:20;;;;;;;22.92;12.65;;;;;;;;;;5050999;28;20063;-78
2022/12/13 03:07:17;;;;;;;26.52;12.77;;;;;;;;;;5050902;28;20028;-74
2022/12/13 03:10:11;;;;;;;29.67;14.77;;;;;;;;;;5051805;28;20039;-75
2022/12/13 03:16:25;;;;;;;25.38;13.73;;;;;;;;;;5051696;28;20025;-77
2022/12/13 03:19:10;;;;;;;20.13;11.05;;;;;;;;;;5044403;28;20256;-79
2022/12/13 03:21:56;;;;;;;24.67;12.35;;;;;;;;;;5039176;28;20110;-79
2022/12/13 03:24:41;;;;;;;24.25;11.23;;;;;;;;;;5041960;28;20082;-78
2022/12/13 03:27:26;;;;;;;24.83;12.13;;;;;;;;;;5059920;28;20020;-76
2022/12/13 03:30:12;;;;;;;26.05;13.73;;;;;;;;;;5058303;28;20477;-77
2022/12/13 03:32:57;;;;;;;21.83;11.88;;;;;;;;;;5038292;28;20097;-79
2022/12/13 03:35:43;;;;;;;29.17;12.88;;;;;;;;;;5042269;28;20028;-79
2022/12/13 03:38:28;;;;;;;24.48;11.82;;;;;;;;;;5037403;28;20458;-76
2022/12/13 03:41:16;;;;;;;23.95;12.15;;;;;;;;;;5049858;28;20102;-76
2022/12/13 03:44:03;;;;;;;27.35;14.27;;;;;;;;;;5049356;28;20444;-74
2022/12/13 03:46:48;;;;;;;26.20;12.45;;;;;;;;;;5063447;28;20451;-76
2022/12/13 03:49:33;;;;;;;23.13;11.85;;;;;;;;;;5038809;28;20050;-75
2022/12/13 03:52:18;;;;;;;27.27;12.90;;;;;;;;;;5047144;28;20131;-78
2022/12/13 03:55:04;;;;;;;27.50;13.65;;;;;;;;;;5035441;28;20024;-81
2022/12/13 03:57:49;;;;;;;24.30;11.38;;;;;;;;;;5035869;28;20083;-81
2022/12/13 04:00:34;;;;;;;24.23;12.13;;;;;;;;;;5058798;28;20044;-80
2022/12/13 04:03:19;;;;;;;22.67;12.60;;;;;;;;;;5037310;28;20124;-78
2022/12/13 04:06:05;;;;;;;24.30;12.27;;;;;;;;;;5038545;28;20043;-77
2022/12/13 04:08:50;;;;;;;19.98;11.55;;;;;;;;;;5031273;28;20042;-77
2022/12/13 04:14:40;;;;;;;23.60;11.80;;;;;;;;;;5048204;28;20036;-75
2022/12/13 04:17:25;;;;;;;26.73;13.35;;;;;;;;;;5034970;28;20028;-75
2022/12/13 04:20:10;;;;;;;21.75;10.85;;;;;;;;;;5039813;28;20031;-76
2022/12/13 04:22:56;;;;;;;23.05;12.05;;;;;;;;;;5035776;28;20039;-76
2022/12/13 04:25:42;;;;;;;26.55;11.55;;;;;;;;;;5048513;28;20032;-76
2022/12/13 04:28:27;;;;;;;24.15;13.68;;;;;;;;;;5036201;28;20615;-78
2022/12/13 04:31:12;;;;;;;23.10;12.88;;;;;;;;;;5055830;28;20031;-79
2022/12/13 04:33:57;;;;;;;38.78;13.35;;;;;;;;;;5041241;28;20537;-77
2022/12/13 04:36:43;;;;;;;32.20;12.52;;;;;;;;;;5037057;28;20476;-77
2022/12/13 04:39:28;;;;;;;26.13;12.23;;;;;;;;;;5034937;28;20052;-77
2022/12/13 04:42:13;;;;;;;25.38;12.50;;;;;;;;;;5030273;28;20356;-79
2022/12/13 04:44:59;;;;;;;31.42;13.00;;;;;;;;;;5031117;28;20313;-81
2022/12/13 04:47:44;;;;;;;23.17;11.60;;;;;;;;;;5033230;28;20024;-77
2022/12/13 04:50:29;;;;;;;26.42;12.80;;;;;;;;;;5033177;28;20490;-80
2022/12/13 04:53:15;;;;;;;29.55;13.73;;;;;;;;;;5031582;28;20594;-78
2022/12/13 04:56:01;;;;;;;22.83;12.15;;;;;;;;;;5037480;28;20020;-78
2022/12/13 04:58:46;;;;;;;27.90;12.05;;;;;;;;;;5045877;28;20043;-78
2022/12/13 05:01:33;;;;;;;30.95;13.50;;;;;;;;;;5033430;28;20052;-78
2022/12/13 05:04:18;;;;;;;24.95;12.60;;;;;;;;;;5047756;28;20056;-77
2022/12/13 05:07:03;;;;;;;27.83;13.27;;;;;;;;;;5042110;28;20552;-78
2022/12/13 05:09:48;;;;;;;25.42;13.25;;;;;;;;;;5032574;28;20051;-78
2022/12/13 05:12:33;;;;;;;26.15;13.45;;;;;;;;;;5048022;28;20024;-79
2022/12/13 05:15:19;;;;;;;27.02;13.95;;;;;;;;;;5037197;28;20020;-80
2022/12/13 05:18:05;;;;;;;26.45;12.77;;;;;;;;;;5036006;28;20482;-80
2022/12/13 05:20:50;;;;;;;23.02;12.25;;;;;;;;;;5036189;28;20044;-79
2022/12/13 05:23:36;;;;;;;26.23;13.73;;;;;;;;;;5034945;28;20016;-78
2022/12/13 05:26:21;;;;;;;24.75;12.48;;;;;;;;;;5037145;28;20070;-76
2022/12/13 05:29:07;;;;;;;37.15;14.02;;;;;;;;;;5034787;28;20017;-79
2022/12/13 05:31:52;;;;;;;24.67;13.07;;;;;;;;;;5033567;28;20024;-78
2022/12/13 05:34:37;;;;;;;27.77;13.30;;;;;;;;;;5034790;28;20089;-76
2022/12/13 05:37:23;;;;;;;25.00;11.60;;;;;;;;;;5047321;28;20020;-75
2022/12/13 05:40:08;;;;;;;24.48;12.88;;;;;;;;;;5046863;28;20040;-76
2022/12/13 05:42:54;;;;;;;24.83;12.25;;;;;;;;;;5049940;28;20109;-75
2022/12/13 05:45:39;;;;;;;25.80;11.77;;;;;;;;;;5047402;28;20048;-83
2022/12/13 05:48:25;;;;;;;24.20;12.55;;;;;;;;;;5034441;28;20035;-80
2022/12/13 05:51:10;;;;;;;25.80;11.75;;;;;;;;;;5032171;28;20059;-80
2022/12/13 05:53:55;;;;;;;28.00;12.82;;;;;;;;;;5034342;28;20028;-79
2022/12/13 05:56:41;;;;;;;24.33;11.82;;;;;;;;;;5054971;28;20031;-79
2022/12/13 05:59:26;;;;;;;25.90;11.75;;;;;;;;;;5042311;28;20036;-82
2022/12/13 06:02:11;;;;;;;24.40;12.18;;;;;;;;;;5032167;28;20279;-78
2022/12/13 06:04:56;;;;;;;22.40;11.75;;;;;;;;;;5041229;28;20027;-78
2022/12/13 06:07:41;;;;;;;26.38;13.30;;;;;;;;;;5045217;28;20322;-78
2022/12/13 06:10:27;;;;;;;21.67;11.82;;;;;;;;;;5043914;28;20029;-78
2022/12/13 06:13:12;;;;;;;22.98;12.70;;;;;;;;;;5043661;28;20536;-76
2022/12/13 06:16:01;;;;;;;27.65;12.60;;;;;;;;;;5044841;28;20020;-79
2022/12/13 06:18:47;;;;;;;26.45;13.63;;;;;;;;;;5049996;28;20260;-80
2022/12/13 06:21:32;;;;;;;24.23;12.00;;;;;;;;;;5038056;28;20422;-77
2022/12/13 06:24:18;;;;;;;26.40;12.77;;;;;;;;;;5042309;28;20013;-76
2022/12/13 06:27:05;;;;;;;27.10;13.50;;;;;;;;;;5038240;28;20093;-76
2022/12/13 06:29:50;;;;;;;23.90;10.95;;;;;;;;;;5045884;28;20586;-75
2022/12/13 06:32:36;;;;;;;22.35;11.73;;;;;;;;;;5048347;28;20020;-76
2022/12/13 06:35:21;;;;;;;27.23;12.70;;;;;;;;;;5047228;28;20028;-76
2022/12/13 06:38:06;;;;;;;26.90;13.50;;;;;;;;;;5033459;28;20464;-78
2022/12/13 06:40:51;;;;;;;23.42;11.43;;;;;;;;;;5044745;28;20029;-78
2022/12/13 06:43:37;;;;;;;23.15;11.00;;;;;;;;;;5033100;28;20221;-76
2022/12/13 06:46:23;;;;;;;23.67;12.32;;;;;;;;;;5033990;28;20115;-77
2022/12/13 06:49:08;;;;;;;21.13;11.95;;;;;;;;;;5051509;28;20028;-77
2022/12/13 06:51:53;;;;;;;28.90;12.50;;;;;;;;;;5045784;28;20020;-77
2022/12/13 06:54:39;;;;;;;22.67;11.68;;;;;;;;;;5031588;28;20081;-77
2022/12/13 06:57:24;;;;;;;30.55;14.70;;;;;;;;;;5047550;28;20025;-78
2022/12/13 07:00:10;;;;;;;28.33;12.68;;;;;;;;;;5034809;28;20024;-79
2022/12/13 07:02:55;;;;;;;25.50;13.75;;;;;;;;;;5034237;28;20053;-75
2022/12/13 07:05:41;;;;;;;27.40;11.80;;;;;;;;;;5040146;28;20017;-73
2022/12/13 07:08:26;;;;;;;27.67;12.07;;;;;;;;;;5048839;28;20028;-78
2022/12/13 07:11:15;;;;;;;25.00;12.82;;;;;;;;;;5047443;28;20039;-78
2022/12/13 07:14:01;;;;;;;;;;;;;;;;;;5042612;28;20028;-76
2022/12/13 07:16:46;;;;;;;29.67;12.55;;;;;;;;;;5050641;28;19907;-81
2022/12/13 07:19:31;;;;;;;28.33;13.43;;;;;;;;;;5044834;28;20024;-80
2022/12/13 07:22:16;;;;;;;28.38;14.60;;;;;;;;;;5042005;28;20021;-82
2022/12/13 07:25:03;;;;;;;29.15;13.00;;;;;;;;;;5044803;28;20369;-77
2022/12/13 07:27:54;;;;;;;25.05;12.65;;;;;;;;;;5049592;28;20020;-81
2022/12/13 07:30:39;;;;;;;31.50;14.30;;;;;;;;;;5041768;28;20153;-79
2022/12/13 07:33:24;;;;;;;29.75;13.85;;;;;;;;;;5042026;28;20346;-76
2022/12/13 07:36:13;;;;;;;23.85;13.15;;;;;;;;;;5040630;28;20070;-76
2022/12/13 07:38:58;;;;;;;25.20;13.70;;;;;;;;;;5049305;28;20570;-82
2022/12/13 07:41:43;;;;;;;29.02;13.90;;;;;;;;;;5036044;28;20056;-80
2022/12/13 07:44:28;;;;;;;28.60;13.50;;;;;;;;;;5059697;28;20017;-79
2022/12/13 07:47:14;;;;;;;23.17;10.80;;;;;;;;;;5047496;28;20107;-80
2022/12/13 07:49:59;;;;;;;31.77;14.40;;;;;;;;;;5046187;28;20031;-81
2022/12/13 07:52:46;;;;;;;24.38;12.88;;;;;;;;;;5041975;28;20091;-76
2022/12/13 07:55:32;;;;;;;25.85;12.00;;;;;;;;;;5058292;28;20028;-75
2022/12/13 07:58:17;;;;;;;26.83;12.38;;;;;;;;;;5049513;28;20020;-77
2022/12/13 08:01:07;;;;;;;30.00;13.20;;;;;;;;;;5052289;28;20043;-76
2022/12/13 08:03:52;;;;;;;;;;;;;;;;;;5058459;28;20032;-77
2022/12/13 08:06:37;;;;;;;21.95;10.77;;;;;;;;;;5044344;28;19915;-76
2022/12/13 08:09:22;;;;;;;24.40;10.63;;;;;;;;;;5049925;28;20389;-76
2022/12/13 08:12:08;;;;;;;25.80;11.90;;;;;;;;;;5054552;28;20081;-81
2022/12/13 08:14:54;;;;;;;22.17;11.90;;;;;;;;;;5048208;28;20098;-77
2022/12/13 08:17:39;;;;;;;29.02;13.68;;;;;;;;;;5068063;28;20023;-77
2022/12/13 08:20:24;;;;;;;26.08;12.85;;;;;;;;;;5066757;28;20395;-78
2022/12/13 08:23:09;;;;;;;26.35;12.07;;;;;;;;;;5052113;28;20032;-76
2022/12/13 08:25:55;;;;;;;26.65;12.15;;;;;;;;;;5066445;28;20035;-78
2022/12/13 08:28:40;;;;;;;26.08;12.25;;;;;;;;;;5066606;28;20032;-77
2022/12/13 08:31:25;;;;;;;26.15;13.48;;;;;;;;;;5046333;28;20034;-80
2022/12/13 08:34:11;;;;;;;32.63;15.27;;;;;;;;;;5075381;28;20028;-82
2022/12/13 08:36:56;;;;;;;30.13;13.45;;;;;;;;;;5052996;28;20056;-82
2022/12/13 08:39:43;;;;;;;23.92;13.32;;;;;;;;;;5034229;28;20032;-82
2022/12/13 08:42:28;;;;;;;33.55;11.85;;;;;;;;;;5050313;28;20099;-85
2022/12/13 08:45:13;;;;;;;28.20;14.27;;;;;;;;;;5047015;28;20017;-84
2022/12/13 08:47:59;;;;;;;25.90;13.82;;;;;;;;;;5045801;28;20103;-82
2022/12/13 08:50:44;;;;;;;30.40;13.85;;;;;;;;;;5064935;28;20012;-79
2022/12/13 08:53:30;;;;;;;27.02;13.50;;;;;;;;;;5060071;28;20028;-78
2022/12/13 08:56:17;;;;;;;28.95;13.35;;;;;;;;;;5049881;28;20071;-79
2022/12/13 08:59:02;;;;;;;31.48;14.45;;;;;;;;;;5035843;28;20037;-78
2022/12/13 09:01:48;;;;;;;23.38;13.48;;;;;;;;;;5047846;28;20056;-79
2022/12/13 09:04:33;;;;;;;25.17;12.82;;;;;;;;;;5036569;28;20009;-77
2022/12/13 09:07:18;;;;;;;27.80;13.35;;;;;;;;;;5054477;28;20130;-71
2022/12/13 09:10:04;;;;;;;29.60;12.30;;;;;;;;;;5042898;28;20028;-75
2022/12/13 09:12:50;;;;;;;30.52;15.63;;;;;;;;;;5072353;28;20040;-76
2022/12/13 09:15:37;;;;;;;36.15;14.40;;;;;;;;;;5059607;28;20034;-76
2022/12/13 09:18:22;;;;;;;23.00;12.40;;;;;;;;;;5065458;28;20020;-75
2022/12/13 09:21:08;;;;;;;27.40;13.32;;;;;;;;;;5067847;28;20040;-74
2022/12/13 09:23:54;;;;;;;26.55;13.73;;;;;;;;;;5061399;28;20014;-74
2022/12/13 09:26:39;;;;;;;22.05;13.48;;;;;;;;;;5041550;28;20579;-72
2022/12/13 09:29:24;;;;;;;21.80;10.75;;;;;;;;;;5045849;28;20009;-72
2022/12/13 09:32:09;;;;;;;31.38;13.18;;;;;;;;;;5041446;28;20055;-74
2022/12/13 09:34:55;;;;;;;23.83;12.50;;;;;;;;;;5042215;28;20024;-71
2022/12/13 09:37:40;;;;;;;28.75;14.15;;;;;;;;;;5061178;28;20027;-76
2022/12/13 09:40:26;;;;;;;25.08;13.27;;;;;;;;;;5034832;28;20511;-74
2022/12/13 09:43:15;;;;;;;28.98;15.50;;;;;;;;;;5052199;28;20056;-73
2022/12/13 09:46:03;;;;;;;28.25;13.43;;;;;;;;;;5033285;28;20534;-73
2022/12/13 09:48:50;;;;;;;32.15;14.32;;;;;;;;;;5043870;28;20035;-73
2022/12/13 09:51:35;;;;;;;26.95;14.27;;;;;;;;;;5048300;28;20044;-75
2022/12/13 09:54:21;;;;;;;26.65;13.70;;;;;;;;;;5041516;28;20565;-81
2022/12/13 09:57:15;;;;;;;29.08;13.80;;;;;;;;;;5035659;28;20028;-67
2022/12/13 10:00:05;;;;;;;28.85;14.45;;;;;;;;;;5046367;28;20059;-74
2022/12/13 10:02:59;;;;;;;29.67;14.40;;;;;;;;;;5060796;28;20385;-76
2022/12/13 10:05:50;;;;;;;25.83;12.68;;;;;;;;;;5039052;28;20024;-72
2022/12/13 10:08:37;;;;;;;26.75;14.00;;;;;;;;;;5045810;28;20035;-73
2022/12/13 10:11:22;;;;;;;27.48;13.50;;;;;;;;;;5034649;28;20028;-70
2022/12/13 10:14:10;;;;;;;24.80;13.23;;;;;;;;;;5049850;28;20032;-70
2022/12/13 10:16:59;;;;;;;26.80;12.48;;;;;;;;;;5038645;28;20030;-69
2022/12/13 10:19:45;;;;;;;26.10;13.27;;;;;;;;;;5044798;28;20154;-73
2022/12/13 10:22:30;;;;;;;25.90;12.18;;;;;;;;;;5034042;28;20111;-73
2022/12/13 10:25:15;;;;;;;23.60;11.98;;;;;;;;;;5045548;28;20024;-73
2022/12/13 10:28:03;;;;;;;24.95;12.82;;;;;;;;;;5039484;28;20013;-76
2022/12/13 10:30:49;;;;;;;27.67;11.52;;;;;;;;;;5050873;28;20020;-75
2022/12/13 10:33:41;;;;;;;20.17;10.82;;;;;;;;;;5045567;28;20024;-75
2022/12/13 10:36:30;;;;;;;18.77;10.60;;;;;;;;;;5057844;28;20027;-75
2022/12/13 10:39:18;;;;;;;23.63;11.68;;;;;;;;;;5039178;28;20029;-74
2022/12/13 10:42:04;;;;;;;19.23;9.98;;;;;;;;;;5039652;28;20079;-70
2022/12/13 10:45:19;;;;;;;27.33;11.15;;;;;;;;;;5053081;28;20024;-70
2022/12/13 10:48:04;;;;;;;21.88;11.43;;;;;;;;;;5037485;28;20058;-72
2022/12/13 10:51:19;;;;;;;25.13;11.90;;;;;;;;;;5055288;28;20490;-71
2022/12/13 10:54:05;;;;;;;24.83;11.65;;;;;;;;;;5046235;28;20029;-74
2022/12/13 10:56:52;;;;;;;25.92;11.98;;;;;;;;;;5043999;28;20235;-81
2022/12/13 10:59:38;;;;;;;21.02;10.63;;;;;;;;;;5054143;28;20027;-76
2022/12/13 11:02:32;;;;;;;24.67;12.30;;;;;;;;;;5050197;28;20468;-76
2022/12/13 11:05:23;;;;;;;26.60;10.10;;;;;;;;;;5064346;28;20025;-72
2022/12/13 11:08:12;;;;;;;22.65;10.27;;;;;;;;;;5065828;28;20020;-77
2022/12/13 11:10:58;;;;;;;21.80;10.98;;;;;;;;;;5052081;28;20039;-77
2022/12/13 11:13:45;;;;;;;20.23;10.73;;;;;;;;;;5057834;28;20055;-75
2022/12/13 11:16:32;;;;;;;22.17;11.15;;;;;;;;;;5052070;28;20814;-72
2022/12/13 11:19:19;;;;;;;22.83;10.52;;;;;;;;;;5039072;28;20116;-76
2022/12/13 11:22:06;;;;;;;24.20;10.75;;;;;;;;;;5052613;28;20044;-73
2022/12/13 11:24:52;;;;;;;23.52;11.13;;;;;;;;;;5048471;28;20028;-75
2022/12/13 11:27:56;;;;;;;20.55;10.57;;;;;;;;;;5051981;28;20052;-73
2022/12/13 11:30:47;;;;;;;20.83;10.32;;;;;;;;;;5055781;28;20016;-76
2022/12/13 11:33:41;;;;;;;22.05;9.50;;;;;;;;;;5048576;28;20016;-80
2022/12/13 11:36:26;;;;;;;19.92;9.95;;;;;;;;;;5038063;28;20428;-72
2022/12/13 11:39:18;;;;;;;27.60;10.38;;;;;;;;;;5046639;28;20472;-72
2022/12/13 11:42:22;;;;;;;18.80;10.07;;;;;;;;;;5051405;28;20500;-73
2022/12/13 11:45:26;;;;;;;19.10;9.90;;;;;;;;;;5037908;28;20036;-70
2022/12/13 11:48:20;;;;;;;20.58;10.07;;;;;;;;;;5054428;28;20395;-74
2022/12/13 11:51:07;;;;;;;20.98;9.85;;;;;;;;;;5040404;28;20348;-75
2022/12/13 11:53:58;;;;;;;19.17;9.85;;;;;;;;;;5054834;28;20043;-75
2022/12/13 11:56:44;;;;;;;20.33;9.45;;;;;;;;;;5053632;28;20028;-71
2022/12/13 11:59:41;;;;;;;20.40;8.80;;;;;;;;;;5053741;28;20028;-73
2022/12/13 12:02:32;;;;;;;19.30;10.20;;;;;;;;;;5047443;28;20053;-73
2022/12/13 12:05:27;;;;;;;18.20;9.80;;;;;;;;;;5072962;28;20028;-74
2022/12/13 12:08:18;;;;;;;19.95;8.77;;;;;;;;;;5066494;28;20593;-75
2022/12/13 12:11:24;;;;;;;22.80;9.60;;;;;;;;;;5050806;28;20709;-77
2022/12/13 12:14:09;;;;;;;21.17;10.50;;;;;;;;;;5052274;28;20032;-70
2022/12/13 12:16:56;;;;;;;18.75;9.93;;;;;;;;;;5067060;28;20024;-72
2022/12/13 12:19:43;;;;;;;24.48;10.10;;;;;;;;;;5053471;28;20655;-72
2022/12/13 12:22:29;;;;;;;21.45;9.35;;;;;;;;;;5042856;28;20032;-70
2022/12/13 12:25:23;;;;;;;20.98;10.40;;;;;;;;;;5058443;28;20113;-70
2022/12/13 12:28:28;;;;;;;22.63;10.40;;;;;;;;;;5065439;28;20066;-72
2022/12/13 12:31:17;;;;;;;22.70;9.95;;;;;;;;;;5068439;28;20600;-71
2022/12/13 12:34:25;;;;;;;24.20;9.85;;;;;;;;;;5070133;28;20024;-70
2022/12/13 12:37:10;;;;;;;19.58;9.38;;;;;;;;;;5051552;28;20089;-70
2022/12/13 12:40:14;;;;;;;19.20;9.02;;;;;;;;;;5073476;28;20076;-71
2022/12/13 12:43:06;;;;;;;24.17;11.85;;;;;;;;;;5065219;28;20028;-71
2022/12/13 12:46:29;;;;;;;23.42;10.15;;;;;;;;;;5069075;28;20021;-74
2022/12/13 12:49:33;;;;;;;24.00;9.25;;;;;;;;;;4965964;28;20023;-71
2022/12/13 12:52:37;;;;;;;17.40;8.95;;;;;;;;;;4981013;28;20058;-73
2022/12/13 12:55:31;;;;;;;18.38;8.73;;;;;;;;;;5047045;28;20107;-74
2022/12/13 12:58:30;;;;;;;18.35;9.25;;;;;;;;;;5042217;28;20065;-75
2022/12/13 13:01:28;;;;;;;22.42;11.13;;;;;;;;;;5059497;28;20089;-75
2022/12/13 13:04:17;;;;;;;22.05;10.57;;;;;;;;;;5058686;28;20051;-75
2022/12/13 13:07:06;;;;;;;19.58;10.07;;;;;;;;;;5060604;28;20020;-77
2022/12/13 13:09:52;;;;;;;21.15;10.73;;;;;;;;;;5060022;28;20016;-77
2022/12/13 13:12:39;;;;;;;20.58;10.95;;;;;;;;;;5034636;28;20025;-78
2022/12/13 13:15:30;;;;;;;23.17;12.23;;;;;;;;;;5053129;28;20029;-76
2022/12/13 13:18:34;;;;;;;22.92;11.65;;;;;;;;;;5046708;28;20028;-76
2022/12/13 13:21:22;;;;;;;22.48;10.77;;;;;;;;;;5051600;28;20029;-77
2022/12/13 13:24:07;;;;;;;18.80;10.70;;;;;;;;;;5036916;28;20626;-74
2022/12/13 13:27:13;;;;;;;22.70;9.98;;;;;;;;;;5041477;28;20591;-77
2022/12/13 13:30:05;;;;;;;21.10;9.73;;;;;;;;;;5038445;28;20047;-76
2022/12/13 13:32:52;;;;;;;22.13;9.65;;;;;;;;;;5032509;28;20056;-77
2022/12/13 13:35:49;;;;;;;19.08;9.68;;;;;;;;;;5051780;28;20012;-76
2022/12/13 13:38:48;;;;;;;20.23;9.98;;;;;;;;;;5046423;28;20048;-75
2022/12/13 13:41:54;;;;;;;21.80;10.25;;;;;;;;;;5056480;28;20042;-74
2022/12/13 13:44:39;;;;;;;18.25;9.63;;;;;;;;;;5042150;28;20033;-75
2022/12/13 13:47:24;;;;;;;17.27;9.93;;;;;;;;;;5063104;28;20094;-77
2022/12/13 13:50:12;;;;;;;20.63;10.77;;;;;;;;;;5061820;28;20135;-75
2022/12/13 13:53:10;;;;;;;27.73;10.35;;;;;;;;;;5054727;28;20016;-76
2022/12/13 13:56:07;;;;;;;20.25;10.18;;;;;;;;;;5059561;28;20548;-75
2022/12/13 13:59:12;;;;;;;18.83;9.93;;;;;;;;;;5058263;28;20491;-76
2022/12/13 14:02:06;;;;;;;22.83;10.45;;;;;;;;;;5055552;28;20048;-74
2022/12/13 14:04:51;;;;;;;23.90;10.77;;;;;;;;;;5066235;28;20040;-72
2022/12/13 14:07:49;;;;;;;23.83;9.93;;;;;;;;;;5059685;28;20073;-72
2022/12/13 14:10:53;;;;;;;18.52;9.45;;;;;;;;;;5053152;28;20070;-71
2022/12/13 14:13:57;;;;;;;22.13;9.73;;;;;;;;;;5045713;28;20450;-72
2022/12/13 14:17:00;;;;;;;20.92;10.27;;;;;;;;;;5062235;28;20024;-74
2022/12/13 14:19:58;;;;;;;19.05;8.75;;;;;;;;;;5051061;28;20024;-72
2022/12/13 14:22:43;;;;;;;23.30;10.27;;;;;;;;;;5064219;28;20024;-74
2022/12/13 14:25:40;;;;;;;18.33;9.15;;;;;;;;;;5063261;28;20024;-73
2022/12/13 14:28:40;;;;;;;19.65;8.63;;;;;;;;;;5057369;28;20495;-72
2022/12/13 14:31:42;;;;;;;18.67;9.20;;;;;;;;;;5055131;28;20095;-73
2022/12/13 14:34:29;;;;;;;18.30;7.68;;;;;;;;;;5064741;28;20029;-77
2022/12/13 14:37:25;;;;;;;23.80;9.98;;;;;;;;;;5045884;28;20023;-76
2022/12/13 14:40:31;;;;;;;15.68;8.50;;;;;;;;;;5062744;28;20032;-79
2022/12/13 14:43:27;;;;;;;22.15;9.23;;;;;;;;;;5056053;28;20016;-79
2022/12/13 14:46:13;;;;;;;23.95;8.43;;;;;;;;;;5055080;28;20055;-77
2022/12/13 14:48:58;;;;;;;17.63;9.85;;;;;;;;;;5058278;28;20483;-79
2022/12/13 14:51:45;;;;;;;19.50;9.40;;;;;;;;;;5042650;28;20027;-79
2022/12/13 14:54:58;;;;;;;18.38;8.48;;;;;;;;;;5054836;28;20067;-79
2022/12/13 14:57:50;;;;;;;22.13;8.07;;;;;;;;;;5062495;28;20397;-77
2022/12/13 15:00:38;;;;;;;15.15;7.97;;;;;;;;;;5042858;28;20024;-77
2022/12/13 15:03:25;;;;;;;18.25;8.48;;;;;;;;;;5054031;28;20495;-76
2022/12/13 15:06:10;;;;;;;17.55;8.90;;;;;;;;;;5042027;28;20096;-76
2022/12/13 15:08:55;;;;;;;18.52;8.15;;;;;;;;;;5058560;28;20391;-77
2022/12/13 15:11:42;;;;;;;16.30;8.25;;;;;;;;;;5042022;28;20025;-76
2022/12/13 15:14:28;;;;;;;14.98;8.02;;;;;;;;;;5071706;28;20040;-77
2022/12/13 15:17:22;;;;;;;15.85;7.55;;;;;;;;;;5055309;28;20028;-72
2022/12/13 15:20:24;;;;;;;20.10;8.40;;;;;;;;;;5042920;28;20028;-74
2022/12/13 15:23:22;;;;;;;13.38;6.53;;;;;;;;;;5041418;28;20504;-74
2022/12/13 15:26:10;;;;;;;19.23;8.77;;;;;;;;;;5032033;28;20031;-72
2022/12/13 15:28:57;;;;;;;18.08;8.00;;;;;;;;;;5043788;28;20035;-73
2022/12/13 15:31:43;;;;;;;18.08;7.60;;;;;;;;;;5043613;28;20658;-73
2022/12/13 15:34:28;;;;;;;16.33;7.13;;;;;;;;;;5041341;28;20039;-73
2022/12/13 15:37:13;;;;;;;20.73;9.15;;;;;;;;;;5064608;28;20392;-76
2022/12/13 15:40:00;;;;;;;16.33;8.35;;;;;;;;;;5057262;28;20016;-77
2022/12/13 15:42:46;;;;;;;16.70;7.72;;;;;;;;;;5064140;28;20024;-76
2022/12/13 15:45:31;;;;;;;14.73;7.15;;;;;;;;;;5047475;28;20296;-76
2022/12/13 15:48:23;;;;;;;14.45;7.47;;;;;;;;;;5054511;28;20032;-76
2022/12/13 15:51:08;;;;;;;19.17;7.75;;;;;;;;;;5055758;28;20029;-72
2022/12/13 15:54:06;;;;;;;15.80;7.85;;;;;;;;;;5055948;28;20110;-71
2022/12/13 15:57:02;;;;;;;18.58;9.27;;;;;;;;;;5041603;28;20015;-72
2022/12/13 15:59:47;;;;;;;17.77;8.85;;;;;;;;;;5058371;28;20086;-72
2022/12/13 16:02:33;;;;;;;15.05;7.32;;;;;;;;;;5052140;28;20268;-71
2022/12/13 16:05:23;;;;;;;15.23;7.45;;;;;;;;;;5038552;28;20036;-72
2022/12/13 16:08:23;;;;;;;15.65;7.53;;;;;;;;;;5052133;28;20127;-73
2022/12/13 16:11:08;;;;;;;15.40;7.72;;;;;;;;;;5055004;28;20120;-72
2022/12/13 16:13:53;;;;;;;14.65;7.63;;;;;;;;;;5040730;28;20495;-76
2022/12/13 16:16:38;;;;;;;16.35;7.97;;;;;;;;;;5043524;28;20043;-77
2022/12/13 16:19:24;;;;;;;17.05;7.75;;;;;;;;;;5049776;28;20017;-76
2022/12/13 16:22:09;;;;;;;19.98;8.93;;;;;;;;;;5045383;28;20448;-77
2022/12/13 16:24:55;;;;;;;15.82;8.23;;;;;;;;;;5048092;28;20017;-79
2022/12/13 16:27:40;;;;;;;18.58;7.80;;;;;;;;;;5047943;28;20024;-76
2022/12/13 16:30:27;;;;;;;18.60;8.93;;;;;;;;;;5045956;28;20072;-72
2022/12/13 16:33:14;;;;;;;17.13;7.47;;;;;;;;;;5047303;28;20028;-71